Time;durP1;ratioP1;P1;durP2;ratioP2;P2;SDS_P1;SDS_P2;PMS_P1;PMS_P2;Temp;Humidity;BMP_temperature;BMP_pressure;BME280_temperature;BME280_humidity;BME280_pressure;Samples;Min_cycle;Max_cycle;Signal;HPM_P1;HPM_P2
2021/11/21 00:19:40;;;;;;;1.70;1.60;;;;;;;;;;4188936;34;20141;-64
2021/11/21 00:22:07;;;;;;;1.83;1.70;;;;;;;;;;4190336;34;20531;-65
2021/11/21 00:24:36;;;;;;;2.35;1.60;;;;;;;;;;4176951;34;20198;-73
2021/11/21 00:27:02;;;;;;;1.75;1.65;;;;;;;;;;4176873;34;20103;-64
2021/11/21 00:29:28;;;;;;;1.80;1.70;;;;;;;;;;4176846;34;20476;-73
2021/11/21 00:31:54;;;;;;;1.52;1.42;;;;;;;;;;4176855;34;20114;-72
2021/11/21 00:34:19;;;;;;;1.60;1.50;;;;;;;;;;4152944;34;20125;-73
2021/11/21 00:36:45;;;;;;;1.65;1.50;;;;;;;;;;4177103;34;20122;-73
2021/11/21 00:39:11;;;;;;;1.60;1.50;;;;;;;;;;4176406;34;20409;-72
2021/11/21 00:41:37;;;;;;;1.45;1.35;;;;;;;;;;4176743;34;20443;-70
2021/11/21 00:44:03;;;;;;;1.50;1.40;;;;;;;;;;4176729;34;20102;-73
2021/11/21 00:46:29;;;;;;;1.60;1.50;;;;;;;;;;4176724;34;20673;-73
2021/11/21 00:48:55;;;;;;;1.35;1.33;;;;;;;;;;4164230;34;20137;-71
2021/11/21 00:51:21;;;;;;;1.58;1.48;;;;;;;;;;4176617;34;20120;-71
2021/11/21 00:53:52;;;;;;;1.55;1.45;;;;;;;;;;4176582;34;20183;-71
2021/11/21 00:56:18;;;;;;;1.73;1.62;;;;;;;;;;4163842;34;20287;-71
2021/11/21 00:58:44;;;;;;;1.80;1.70;;;;;;;;;;4176545;34;20138;-72
2021/11/21 01:01:09;;;;;;;1.48;1.37;;;;;;;;;;4164049;34;20125;-72
2021/11/21 01:03:35;;;;;;;2.05;1.42;;;;;;;;;;4176489;34;20129;-75
2021/11/21 01:06:01;;;;;;;1.60;1.50;;;;;;;;;;4163780;34;20114;-71
2021/11/21 01:08:27;;;;;;;1.48;1.37;;;;;;;;;;4176674;34;20198;-72
2021/11/21 01:10:56;;;;;;;1.52;1.42;;;;;;;;;;4164173;34;20138;-71
2021/11/21 01:13:22;;;;;;;1.50;1.40;;;;;;;;;;4176643;34;20130;-71
2021/11/21 01:15:48;;;;;;;1.40;1.30;;;;;;;;;;4176650;34;20618;-71
2021/11/21 01:18:14;;;;;;;1.40;1.30;;;;;;;;;;4163596;34;20185;-71
2021/11/21 01:20:41;;;;;;;1.42;1.33;;;;;;;;;;4152560;34;20226;-72
2021/11/21 01:23:08;;;;;;;1.40;1.30;;;;;;;;;;4164040;34;20458;-74
2021/11/21 01:25:34;;;;;;;1.48;1.37;;;;;;;;;;4163829;34;20197;-72
2021/11/21 01:28:00;;;;;;;1.50;1.40;;;;;;;;;;4163545;34;20204;-73
2021/11/21 01:30:27;;;;;;;1.20;1.20;;;;;;;;;;4176520;34;20105;-72
2021/11/21 01:32:54;;;;;;;1.20;1.20;;;;;;;;;;4163575;34;20306;-71
2021/11/21 01:35:20;;;;;;;1.12;1.10;;;;;;;;;;4176471;34;20133;-71
2021/11/21 01:37:45;;;;;;;1.10;1.10;;;;;;;;;;4176229;34;20234;-72
2021/11/21 01:40:13;;;;;;;1.20;1.20;;;;;;;;;;4163456;34;20125;-72
2021/11/21 01:42:39;;;;;;;1.40;1.30;;;;;;;;;;4176036;34;20113;-71
2021/11/21 01:45:05;;;;;;;1.50;1.40;;;;;;;;;;4163684;34;20198;-72
2021/11/21 01:47:31;;;;;;;1.35;1.27;;;;;;;;;;4152355;34;20496;-72
2021/11/21 01:49:57;;;;;;;1.30;1.30;;;;;;;;;;4176451;34;20106;-72
2021/11/21 01:52:23;;;;;;;1.42;1.33;;;;;;;;;;4165322;34;20129;-72
2021/11/21 01:54:49;;;;;;;1.40;1.30;;;;;;;;;;4165502;34;20466;-71
2021/11/21 01:57:16;;;;;;;1.60;1.50;;;;;;;;;;4178086;34;20525;-71
2021/11/21 01:59:42;;;;;;;1.50;1.40;;;;;;;;;;4154561;34;20129;-72
2021/11/21 02:02:08;;;;;;;1.50;1.40;;;;;;;;;;4165508;34;20519;-72
2021/11/21 02:04:33;;;;;;;1.33;1.23;;;;;;;;;;4165413;34;20153;-71
2021/11/21 02:06:59;;;;;;;1.70;1.60;;;;;;;;;;4178249;34;20210;-71
2021/11/21 02:09:26;;;;;;;1.40;1.30;;;;;;;;;;4165426;34;20533;-70
2021/11/21 02:11:52;;;;;;;1.60;1.50;;;;;;;;;;4178430;34;20205;-69
2021/11/21 02:14:17;;;;;;;1.40;1.30;;;;;;;;;;4165348;34;20222;-70
2021/11/21 02:16:45;;;;;;;1.70;1.60;;;;;;;;;;4178104;34;20201;-69
2021/11/21 02:19:10;;;;;;;1.40;1.30;;;;;;;;;;4165148;34;20521;-71
2021/11/21 02:21:36;;;;;;;1.50;1.40;;;;;;;;;;4165294;34;20160;-69
2021/11/21 02:24:02;;;;;;;1.80;1.70;;;;;;;;;;4177870;34;20119;-71
2021/11/21 02:26:28;;;;;;;1.95;1.60;;;;;;;;;;4177895;34;20129;-71
2021/11/21 02:28:55;;;;;;;1.80;1.70;;;;;;;;;;4177948;34;20753;-72
2021/11/21 02:31:21;;;;;;;1.50;1.40;;;;;;;;;;4165165;34;20542;-72
2021/11/21 02:33:49;;;;;;;1.62;1.52;;;;;;;;;;4178111;34;20137;-70
2021/11/21 02:36:15;;;;;;;1.60;1.50;;;;;;;;;;4165399;34;20145;-70
2021/11/21 02:38:41;;;;;;;1.70;1.60;;;;;;;;;;4177843;34;20121;-71
2021/11/21 02:41:08;;;;;;;1.80;1.70;;;;;;;;;;4178083;34;20522;-71
2021/11/21 02:43:34;;;;;;;1.80;1.70;;;;;;;;;;4165091;34;20126;-72
2021/11/21 02:45:59;;;;;;;1.92;1.62;;;;;;;;;;4165047;34;20235;-71
2021/11/21 02:48:27;;;;;;;1.90;1.80;;;;;;;;;;4177689;34;20114;-71
2021/11/21 02:50:53;;;;;;;1.70;1.60;;;;;;;;;;4177786;34;20201;-71
2021/11/21 02:53:21;;;;;;;2.62;1.60;;;;;;;;;;4165063;34;20094;-71
2021/11/21 02:55:47;;;;;;;1.60;1.50;;;;;;;;;;4177691;34;20586;-71
2021/11/21 02:58:13;;;;;;;1.52;1.42;;;;;;;;;;4142292;34;20177;-71
2021/11/21 03:00:40;;;;;;;1.77;1.67;;;;;;;;;;4177641;34;20111;-71
2021/11/21 03:03:06;;;;;;;1.60;1.50;;;;;;;;;;4177596;34;20476;-71
2021/11/21 03:05:33;;;;;;;1.92;1.80;;;;;;;;;;4165306;34;20148;-71
2021/11/21 03:07:59;;;;;;;1.75;1.65;;;;;;;;;;4177470;34;20113;-70
2021/11/21 03:10:25;;;;;;;2.05;1.92;;;;;;;;;;4177627;34;20578;-72
2021/11/21 03:12:56;;;;;;;2.22;1.80;;;;;;;;;;4177869;34;20114;-72
2021/11/21 03:15:22;;;;;;;2.05;1.95;;;;;;;;;;4177544;34;20130;-72
2021/11/21 03:17:48;;;;;;;1.92;1.80;;;;;;;;;;4164935;34;20121;-72
2021/11/21 03:20:16;;;;;;;1.83;1.73;;;;;;;;;;4177707;34;20650;-71
2021/11/21 03:22:42;;;;;;;2.47;1.92;;;;;;;;;;4177393;34;20122;-71
2021/11/21 03:25:09;;;;;;;2.20;2.00;;;;;;;;;;4177523;34;20110;-70
2021/11/21 03:27:35;;;;;;;1.90;1.80;;;;;;;;;;4164630;34;20129;-72
2021/11/21 03:30:01;;;;;;;1.90;1.80;;;;;;;;;;4164935;34;20183;-70
2021/11/21 03:32:27;;;;;;;2.65;1.90;;;;;;;;;;4177379;34;20619;-69
2021/11/21 03:34:53;;;;;;;2.45;1.73;;;;;;;;;;4177473;34;20138;-69
2021/11/21 03:37:19;;;;;;;2.25;2.00;;;;;;;;;;4177361;34;20110;-70
2021/11/21 03:39:45;;;;;;;2.08;1.90;;;;;;;;;;4164659;34;20106;-74
2021/11/21 03:42:11;;;;;;;2.95;2.00;;;;;;;;;;4177246;34;20180;-73
2021/11/21 03:44:37;;;;;;;1.90;1.80;;;;;;;;;;4164647;34;20098;-70
2021/11/21 03:47:03;;;;;;;1.90;1.70;;;;;;;;;;4177213;34;20121;-71
2021/11/21 03:49:29;;;;;;;1.92;1.80;;;;;;;;;;4177274;34;20130;-71
2021/11/21 03:51:54;;;;;;;2.17;1.90;;;;;;;;;;4177253;34;20141;-70
2021/11/21 03:54:20;;;;;;;2.37;2.03;;;;;;;;;;4177045;34;20512;-70
2021/11/21 03:56:46;;;;;;;2.42;2.10;;;;;;;;;;4177187;34;20141;-71
2021/11/21 03:59:12;;;;;;;2.30;2.10;;;;;;;;;;4164625;34;20126;-71
2021/11/21 04:01:38;;;;;;;2.10;1.87;;;;;;;;;;4164359;34;20122;-72
2021/11/21 04:04:07;;;;;;;2.40;2.20;;;;;;;;;;4177066;34;20094;-71
2021/11/21 04:06:33;;;;;;;1.95;1.80;;;;;;;;;;4177051;34;20113;-72
2021/11/21 04:08:59;;;;;;;2.30;2.10;;;;;;;;;;4164564;34;20118;-70
2021/11/21 04:11:25;;;;;;;3.85;2.12;;;;;;;;;;4164526;34;20083;-71
2021/11/21 04:13:51;;;;;;;2.20;2.00;;;;;;;;;;4176703;34;20099;-71
2021/11/21 04:16:17;;;;;;;2.85;2.17;;;;;;;;;;4176914;34;20138;-71
2021/11/21 04:18:43;;;;;;;2.92;2.40;;;;;;;;;;4176905;34;20118;-70
2021/11/21 04:21:09;;;;;;;2.65;2.25;;;;;;;;;;4176867;34;20129;-69
2021/11/21 04:23:35;;;;;;;5.30;2.50;;;;;;;;;;4164122;34;20126;-71
2021/11/21 04:26:01;;;;;;;3.35;2.55;;;;;;;;;;4176792;34;20113;-73
2021/11/21 04:28:28;;;;;;;3.28;2.83;;;;;;;;;;4164619;34;20137;-72
2021/11/21 04:30:54;;;;;;;2.67;2.22;;;;;;;;;;4176865;34;20150;-72
2021/11/21 04:33:23;;;;;;;2.55;2.20;;;;;;;;;;4176934;34;20106;-72
2021/11/21 04:35:49;;;;;;;2.30;2.10;;;;;;;;;;4153314;34;20102;-72
2021/11/21 04:38:15;;;;;;;2.08;1.90;;;;;;;;;;4164091;34;20112;-72
2021/11/21 04:40:41;;;;;;;2.42;2.10;;;;;;;;;;4164364;34;20111;-72
2021/11/21 04:43:07;;;;;;;2.70;2.50;;;;;;;;;;4176924;34;20119;-72
2021/11/21 04:45:33;;;;;;;2.58;2.12;;;;;;;;;;4176811;34;20282;-73
2021/11/21 04:47:59;;;;;;;3.00;2.70;;;;;;;;;;4176954;34;20514;-72
2021/11/21 04:50:25;;;;;;;2.50;2.30;;;;;;;;;;4164041;34;20098;-70
2021/11/21 04:52:51;;;;;;;2.83;2.30;;;;;;;;;;4176913;34;20117;-70
2021/11/21 04:55:17;;;;;;;2.67;2.35;;;;;;;;;;4176589;34;20141;-69
2021/11/21 04:57:43;;;;;;;2.40;2.20;;;;;;;;;;4176443;34;20451;-70
2021/11/21 05:00:17;;;;;;;2.28;2.08;;;;;;;;;;4176807;34;20307;-71
2021/11/21 05:02:44;;;;;;;2.97;2.67;;;;;;;;;;4153065;34;20117;-73
2021/11/21 05:05:10;;;;;;;2.55;2.35;;;;;;;;;;4163785;34;20112;-72
2021/11/21 05:07:36;;;;;;;3.37;2.80;;;;;;;;;;4163678;34;20122;-71
2021/11/21 05:10:04;;;;;;;3.00;2.45;;;;;;;;;;4163822;34;20111;-71
2021/11/21 05:12:30;;;;;;;2.65;2.40;;;;;;;;;;4163651;34;20563;-70
2021/11/21 05:14:57;;;;;;;2.60;2.40;;;;;;;;;;4176455;34;20111;-71
2021/11/21 05:17:23;;;;;;;2.67;2.40;;;;;;;;;;4174383;34;20118;-71
2021/11/21 05:19:49;;;;;;;2.80;2.50;;;;;;;;;;4175800;34;20137;-72
2021/11/21 05:22:15;;;;;;;2.75;2.50;;;;;;;;;;4173762;34;20122;-71
2021/11/21 05:24:41;;;;;;;2.62;2.42;;;;;;;;;;4160411;34;20225;-70
2021/11/21 05:27:07;;;;;;;4.00;2.85;;;;;;;;;;4176636;34;20247;-71
2021/11/21 05:29:32;;;;;;;2.92;2.42;;;;;;;;;;4178552;34;20138;-70
2021/11/21 05:31:58;;;;;;;2.37;2.17;;;;;;;;;;4178516;34;20118;-70
2021/11/21 05:34:24;;;;;;;3.08;2.30;;;;;;;;;;4165569;34;20094;-69
2021/11/21 05:36:50;;;;;;;2.35;2.15;;;;;;;;;;4179439;34;20123;-71
2021/11/21 05:39:16;;;;;;;2.60;2.40;;;;;;;;;;4178534;34;20095;-71
2021/11/21 05:41:42;;;;;;;2.97;2.15;;;;;;;;;;4178226;34;20105;-71
2021/11/21 05:44:08;;;;;;;2.28;2.08;;;;;;;;;;4165586;34;20125;-70
2021/11/21 05:46:34;;;;;;;2.55;2.30;;;;;;;;;;4174556;34;20534;-72
2021/11/21 05:49:00;;;;;;;2.58;2.35;;;;;;;;;;4164022;34;20111;-70
2021/11/21 05:51:26;;;;;;;3.30;2.47;;;;;;;;;;4178030;34;20111;-70
2021/11/21 05:53:52;;;;;;;3.72;3.05;;;;;;;;;;4178041;34;20211;-70
2021/11/21 05:56:19;;;;;;;3.42;2.95;;;;;;;;;;4154359;34;20102;-69
2021/11/21 05:58:47;;;;;;;3.65;3.20;;;;;;;;;;4163140;34;20194;-69
2021/11/21 06:01:14;;;;;;;3.08;2.78;;;;;;;;;;4164396;34;20107;-68
2021/11/21 06:03:40;;;;;;;3.37;3.00;;;;;;;;;;4164703;34;20513;-68
2021/11/21 06:06:06;;;;;;;2.95;2.62;;;;;;;;;;4167465;34;20121;-67
2021/11/21 06:08:32;;;;;;;2.22;2.03;;;;;;;;;;4178002;34;20107;-67
2021/11/21 06:10:58;;;;;;;2.25;2.05;;;;;;;;;;4178149;34;20115;-67
2021/11/21 06:13:25;;;;;;;2.45;2.25;;;;;;;;;;4177883;34;20221;-66
2021/11/21 06:15:52;;;;;;;2.20;2.00;;;;;;;;;;4178185;34;20114;-67
2021/11/21 06:18:18;;;;;;;2.95;2.55;;;;;;;;;;4177756;34;20131;-67
2021/11/21 06:20:43;;;;;;;2.40;2.20;;;;;;;;;;4177901;34;20118;-67
2021/11/21 06:23:11;;;;;;;2.72;2.53;;;;;;;;;;4177890;34;20113;-66
2021/11/21 06:25:38;;;;;;;4.10;2.83;;;;;;;;;;4178209;34;20108;-69
2021/11/21 06:28:04;;;;;;;2.95;2.65;;;;;;;;;;4176630;34;20098;-68
2021/11/21 06:30:30;;;;;;;3.37;2.85;;;;;;;;;;4164732;34;20445;-67
2021/11/21 06:32:56;;;;;;;3.12;2.83;;;;;;;;;;4163575;34;20545;-68
2021/11/21 06:35:22;;;;;;;3.37;2.30;;;;;;;;;;4176887;34;20098;-68
2021/11/21 06:37:48;;;;;;;2.20;2.00;;;;;;;;;;4163336;34;20107;-68
2021/11/21 06:40:14;;;;;;;2.65;2.45;;;;;;;;;;4176454;34;20131;-68
2021/11/21 06:42:42;;;;;;;2.72;2.30;;;;;;;;;;4177519;34;20203;-68
2021/11/21 06:45:11;;;;;;;2.35;2.15;;;;;;;;;;4177635;34;20114;-67
2021/11/21 06:47:37;;;;;;;2.40;2.20;;;;;;;;;;4165061;34;20459;-68
2021/11/21 06:50:04;;;;;;;2.60;2.30;;;;;;;;;;4164687;34;20102;-68
2021/11/21 06:52:31;;;;;;;2.62;2.20;;;;;;;;;;4177436;34;20123;-68
2021/11/21 06:54:57;;;;;;;2.45;2.25;;;;;;;;;;4177578;34;20423;-68
2021/11/21 06:57:23;;;;;;;2.50;2.30;;;;;;;;;;4165065;34;20103;-69
2021/11/21 06:59:49;;;;;;;2.42;2.12;;;;;;;;;;4177578;34;20111;-68
2021/11/21 07:02:15;;;;;;;2.30;2.10;;;;;;;;;;4177320;34;20173;-68
2021/11/21 07:04:40;;;;;;;2.00;1.90;;;;;;;;;;4177488;34;20538;-68
2021/11/21 07:07:10;;;;;;;2.50;2.20;;;;;;;;;;4177314;34;20134;-68
2021/11/21 07:09:36;;;;;;;2.05;1.90;;;;;;;;;;4177467;34;20568;-68
2021/11/21 07:12:02;;;;;;;2.15;1.95;;;;;;;;;;4177404;34;20133;-68
2021/11/21 07:14:28;;;;;;;2.00;1.85;;;;;;;;;;4177254;34;20125;-68
2021/11/21 07:16:54;;;;;;;2.00;1.80;;;;;;;;;;4177201;34;20535;-68
2021/11/21 07:19:19;;;;;;;2.25;2.05;;;;;;;;;;4177514;34;20125;-68
2021/11/21 07:21:45;;;;;;;2.45;2.25;;;;;;;;;;4177563;34;20177;-68
2021/11/21 07:24:12;;;;;;;2.10;1.90;;;;;;;;;;4177587;34;20109;-68
2021/11/21 07:26:38;;;;;;;2.03;1.92;;;;;;;;;;4176982;34;20106;-68
2021/11/21 07:29:04;;;;;;;2.12;1.90;;;;;;;;;;4177275;34;20169;-69
2021/11/21 07:31:30;;;;;;;2.05;1.83;;;;;;;;;;4164894;34;20222;-69
2021/11/21 07:33:56;;;;;;;2.20;1.92;;;;;;;;;;4177596;34;20313;-68
2021/11/21 07:36:22;;;;;;;2.20;2.00;;;;;;;;;;4177201;34;20191;-68
2021/11/21 07:38:48;;;;;;;3.37;2.33;;;;;;;;;;4164352;34;20765;-68
2021/11/21 07:41:14;;;;;;;3.83;2.30;;;;;;;;;;4164591;34;20139;-68
2021/11/21 07:43:40;;;;;;;2.62;2.10;;;;;;;;;;4177453;34;20099;-68
2021/11/21 07:46:07;;;;;;;2.30;2.10;;;;;;;;;;4164633;34;20110;-70
2021/11/21 07:48:33;;;;;;;2.62;2.42;;;;;;;;;;4152152;34;20119;-71
2021/11/21 07:51:00;;;;;;;2.72;2.15;;;;;;;;;;4152761;34;20490;-65
2021/11/21 07:53:26;;;;;;;2.92;2.20;;;;;;;;;;4176839;34;20102;-65
2021/11/21 07:55:52;;;;;;;2.33;2.12;;;;;;;;;;4164304;34;20520;-64
2021/11/21 07:58:19;;;;;;;2.47;2.20;;;;;;;;;;4173390;34;20549;-66
2021/11/21 08:00:45;;;;;;;2.08;1.87;;;;;;;;;;4164055;34;20103;-66
2021/11/21 08:03:11;;;;;;;2.42;2.20;;;;;;;;;;4170823;34;20555;-67
2021/11/21 08:05:37;;;;;;;2.60;2.40;;;;;;;;;;4177222;34;20137;-66
2021/11/21 08:08:03;;;;;;;2.83;2.25;;;;;;;;;;4176436;34;20111;-66
2021/11/21 08:10:29;;;;;;;2.05;1.85;;;;;;;;;;4175412;34;20136;-66
2021/11/21 08:12:55;;;;;;;1.85;1.75;;;;;;;;;;4176279;34;20531;-66
2021/11/21 08:15:21;;;;;;;2.60;2.05;;;;;;;;;;4176797;34;20224;-70
2021/11/21 08:17:47;;;;;;;2.10;1.73;;;;;;;;;;4176610;34;20132;-71
2021/11/21 08:20:13;;;;;;;2.00;1.80;;;;;;;;;;4175308;34;20150;-71
2021/11/21 08:22:39;;;;;;;1.77;1.62;;;;;;;;;;4166700;34;20118;-71
2021/11/21 08:25:05;;;;;;;2.28;1.87;;;;;;;;;;4163307;34;20102;-71
2021/11/21 08:27:31;;;;;;;2.00;1.75;;;;;;;;;;4165004;34;20133;-72
2021/11/21 08:29:57;;;;;;;2.10;1.55;;;;;;;;;;4176756;34;20134;-70
2021/11/21 08:32:23;;;;;;;1.50;1.40;;;;;;;;;;4174850;34;20132;-72
2021/11/21 08:34:49;;;;;;;1.60;1.50;;;;;;;;;;4176452;34;20210;-70
2021/11/21 08:37:15;;;;;;;1.85;1.67;;;;;;;;;;4176165;34;20226;-70
2021/11/21 08:39:40;;;;;;;2.08;1.30;;;;;;;;;;4175189;34;20107;-71
2021/11/21 08:42:06;;;;;;;1.50;1.40;;;;;;;;;;4174633;34;20514;-71
2021/11/21 08:44:32;;;;;;;1.50;1.40;;;;;;;;;;4176730;34;20118;-70
2021/11/21 08:46:58;;;;;;;1.50;1.30;;;;;;;;;;4175758;34;20110;-72
2021/11/21 08:49:24;;;;;;;1.33;1.23;;;;;;;;;;4176596;34;20140;-71
2021/11/21 08:51:50;;;;;;;1.37;1.27;;;;;;;;;;4175576;34;20122;-72
2021/11/21 08:54:16;;;;;;;1.65;1.30;;;;;;;;;;4176003;34;20592;-72
2021/11/21 08:56:43;;;;;;;1.50;1.40;;;;;;;;;;4176480;34;20094;-70
2021/11/21 08:59:09;;;;;;;1.37;1.27;;;;;;;;;;4176748;34;20102;-71
2021/11/21 09:01:35;;;;;;;1.42;1.30;;;;;;;;;;4178503;34;20130;-70
2021/11/21 09:04:01;;;;;;;1.70;1.50;;;;;;;;;;4178578;34;20205;-71
2021/11/21 09:06:27;;;;;;;2.65;1.90;;;;;;;;;;4178311;34;20205;-70
2021/11/21 09:08:52;;;;;;;2.65;2.10;;;;;;;;;;4178531;34;20171;-71
2021/11/21 09:11:18;;;;;;;2.20;2.00;;;;;;;;;;4178444;34;20295;-71
2021/11/21 09:13:44;;;;;;;1.75;1.65;;;;;;;;;;4178664;34;20095;-73
2021/11/21 09:16:10;;;;;;;1.80;1.70;;;;;;;;;;4177388;34;20118;-72
2021/11/21 09:18:36;;;;;;;1.98;1.77;;;;;;;;;;4178523;34;20229;-72
2021/11/21 09:21:02;;;;;;;1.60;1.35;;;;;;;;;;4178740;34;20106;-79
2021/11/21 09:23:28;;;;;;;1.52;1.42;;;;;;;;;;4154352;34;20149;-72
2021/11/21 09:25:54;;;;;;;1.85;1.40;;;;;;;;;;4178205;34;20116;-72
2021/11/21 09:28:21;;;;;;;1.65;1.40;;;;;;;;;;4178226;34;20499;-73
2021/11/21 09:30:47;;;;;;;1.83;1.65;;;;;;;;;;4175225;34;20635;-73
2021/11/21 09:33:13;;;;;;;1.67;1.58;;;;;;;;;;4165176;34;20115;-71
2021/11/21 09:35:39;;;;;;;1.37;1.27;;;;;;;;;;4178155;34;20119;-71
2021/11/21 09:38:06;;;;;;;3.90;1.70;;;;;;;;;;4164904;34;20142;-71
2021/11/21 09:40:32;;;;;;;2.30;1.73;;;;;;;;;;4166622;34;20175;-71
2021/11/21 09:42:57;;;;;;;1.40;1.30;;;;;;;;;;4178134;34;20114;-71
2021/11/21 09:45:23;;;;;;;2.00;1.70;;;;;;;;;;4176076;34;20207;-71
2021/11/21 09:47:50;;;;;;;1.87;1.70;;;;;;;;;;4179375;34;20114;-72
2021/11/21 09:50:16;;;;;;;2.03;1.80;;;;;;;;;;4177528;34;20138;-73
2021/11/21 09:52:42;;;;;;;2.37;1.67;;;;;;;;;;4168879;34;20119;-72
2021/11/21 09:55:08;;;;;;;2.20;2.00;;;;;;;;;;4177857;34;20146;-71
2021/11/21 09:57:36;;;;;;;2.33;1.92;;;;;;;;;;4177465;34;20110;-72
2021/11/21 10:00:12;;;;;;;4.47;1.80;;;;;;;;;;4176517;34;20124;-73
2021/11/21 10:02:42;;;;;;;2.42;1.60;;;;;;;;;;4165138;34;20545;-71
2021/11/21 10:05:15;;;;;;;2.12;1.50;;;;;;;;;;4177721;34;20123;-71
2021/11/21 10:07:41;;;;;;;1.70;1.60;;;;;;;;;;4176057;34;20209;-72
2021/11/21 10:10:13;;;;;;;2.65;1.80;;;;;;;;;;4177459;34;20157;-72
2021/11/21 10:12:41;;;;;;;2.28;2.00;;;;;;;;;;4175956;34;20206;-71
2021/11/21 10:15:07;;;;;;;2.08;1.90;;;;;;;;;;4176340;34;20110;-72
2021/11/21 10:17:34;;;;;;;3.35;2.05;;;;;;;;;;4177504;34;20125;-72
2021/11/21 10:20:04;;;;;;;2.03;1.87;;;;;;;;;;4177576;34;20098;-73
2021/11/21 10:22:49;;;;;;;2.75;2.10;;;;;;;;;;4176079;34;20134;-72
2021/11/21 10:25:36;;;;;;;2.40;2.00;;;;;;;;;;4177414;34;20110;-72
2021/11/21 10:28:06;;;;;;;2.30;1.83;;;;;;;;;;4177333;34;20535;-72
2021/11/21 10:30:32;;;;;;;2.10;1.90;;;;;;;;;;4176306;34;20533;-71
2021/11/21 10:33:03;;;;;;;3.53;2.45;;;;;;;;;;4153076;34;20462;-72
2021/11/21 10:35:29;;;;;;;2.22;1.85;;;;;;;;;;4176070;34;20111;-71
2021/11/21 10:37:58;;;;;;;3.05;2.10;;;;;;;;;;4177344;34;20527;-72
2021/11/21 10:40:24;;;;;;;2.53;2.05;;;;;;;;;;4176359;34;20095;-72
2021/11/21 10:42:51;;;;;;;2.47;2.20;;;;;;;;;;4176417;34;20137;-73
2021/11/21 10:45:26;;;;;;;4.78;2.30;;;;;;;;;;4162961;34;20655;-71
2021/11/21 10:47:57;;;;;;;2.53;1.98;;;;;;;;;;4177063;34;20142;-72
2021/11/21 10:50:33;;;;;;;3.03;2.40;;;;;;;;;;4177328;34;20094;-72
2021/11/21 10:53:01;;;;;;;2.45;1.90;;;;;;;;;;4176205;34;20129;-72
2021/11/21 10:55:27;;;;;;;2.90;2.00;;;;;;;;;;4176103;34;20090;-72
2021/11/21 10:57:53;;;;;;;2.92;2.10;;;;;;;;;;4177313;34;20220;-72
2021/11/21 11:00:26;;;;;;;3.97;2.35;;;;;;;;;;4177346;34;20149;-72
2021/11/21 11:02:53;;;;;;;2.95;2.60;;;;;;;;;;4164878;34;20106;-74
2021/11/21 11:05:23;;;;;;;2.87;2.15;;;;;;;;;;4175725;34;20117;-72
2021/11/21 11:07:51;;;;;;;3.20;1.95;;;;;;;;;;4177608;34;20129;-72
2021/11/21 11:10:33;;;;;;;2.42;1.90;;;;;;;;;;4177466;34;20130;-72
2021/11/21 11:13:08;;;;;;;2.50;2.00;;;;;;;;;;4175788;34;20149;-72
2021/11/21 11:15:35;;;;;;;1.98;1.77;;;;;;;;;;4175945;34;20098;-71
2021/11/21 11:18:01;;;;;;;2.25;1.65;;;;;;;;;;4176773;34;20194;-72
2021/11/21 11:20:27;;;;;;;2.03;1.83;;;;;;;;;;4176245;34;20305;-80
2021/11/21 11:22:55;;;;;;;1.58;1.48;;;;;;;;;;4165565;34;20137;-80
2021/11/21 11:25:25;;;;;;;1.70;1.55;;;;;;;;;;4176581;34;20095;-79
2021/11/21 11:27:54;;;;;;;1.50;1.40;;;;;;;;;;4176723;34;20464;-78
2021/11/21 11:30:30;;;;;;;2.08;1.50;;;;;;;;;;4187789;34;20230;-74
2021/11/21 11:33:10;;;;;;;1.70;1.60;;;;;;;;;;4164700;34;20133;-72
2021/11/21 11:35:41;;;;;;;1.77;1.67;;;;;;;;;;4177417;34;20114;-71
2021/11/21 11:38:11;;;;;;;1.70;1.60;;;;;;;;;;4177290;34;20532;-71
2021/11/21 11:40:41;;;;;;;1.60;1.50;;;;;;;;;;4177183;34;20574;-73
2021/11/21 11:43:16;;;;;;;2.28;1.87;;;;;;;;;;4176373;34;20203;-72
2021/11/21 11:46:03;;;;;;;1.87;1.70;;;;;;;;;;4177519;34;20117;-72
2021/11/21 11:48:32;;;;;;;1.92;1.75;;;;;;;;;;4171130;34;20111;-72
2021/11/21 11:51:09;;;;;;;1.50;1.40;;;;;;;;;;4164549;34;20090;-73
2021/11/21 11:53:36;;;;;;;1.83;1.73;;;;;;;;;;4151078;34;20624;-72
2021/11/21 11:56:14;;;;;;;1.92;1.62;;;;;;;;;;4150844;34;20111;-73
2021/11/21 11:58:45;;;;;;;1.73;1.62;;;;;;;;;;4150863;34;20196;-73
2021/11/21 12:01:11;;;;;;;1.92;1.80;;;;;;;;;;4150931;34;20607;-72
2021/11/21 12:03:38;;;;;;;1.70;1.60;;;;;;;;;;4163266;34;20103;-72
2021/11/21 12:06:05;;;;;;;1.70;1.60;;;;;;;;;;4150768;34;20114;-71
2021/11/21 12:08:30;;;;;;;2.00;1.73;;;;;;;;;;4163312;34;20126;-75
2021/11/21 12:10:56;;;;;;;1.73;1.50;;;;;;;;;;4163540;34;20122;-70
2021/11/21 12:13:29;;;;;;;2.28;1.80;;;;;;;;;;4151026;34;20130;-73
2021/11/21 12:16:05;;;;;;;1.70;1.60;;;;;;;;;;4150726;34;20210;-72
2021/11/21 12:18:57;;;;;;;2.05;1.70;;;;;;;;;;4150734;34;20114;-72
2021/11/21 12:21:37;;;;;;;1.95;1.75;;;;;;;;;;4150984;34;20436;-73
2021/11/21 12:24:05;;;;;;;1.70;1.60;;;;;;;;;;4163283;34;20193;-72
2021/11/21 12:26:36;;;;;;;2.17;1.70;;;;;;;;;;4139541;34;20115;-68
2021/11/21 12:29:07;;;;;;;1.98;1.70;;;;;;;;;;4163370;34;20109;-75
2021/11/21 12:31:36;;;;;;;1.65;1.55;;;;;;;;;;4139442;34;20120;-72
2021/11/21 12:34:25;;;;;;;1.92;1.60;;;;;;;;;;4162753;34;20129;-71
2021/11/21 12:37:10;;;;;;;1.62;1.50;;;;;;;;;;4158970;34;20202;-70
2021/11/21 12:39:36;;;;;;;1.60;1.50;;;;;;;;;;4163208;34;20181;-74
2021/11/21 12:42:11;;;;;;;1.65;1.55;;;;;;;;;;4150812;34;20102;-74
2021/11/21 12:44:40;;;;;;;1.40;1.30;;;;;;;;;;4150809;34;20214;-74
2021/11/21 12:47:09;;;;;;;2.08;1.60;;;;;;;;;;4150536;34;20099;-68
2021/11/21 12:49:35;;;;;;;1.77;1.65;;;;;;;;;;4163027;34;20122;-66
2021/11/21 12:52:08;;;;;;;1.55;1.45;;;;;;;;;;4168206;34;20527;-69
2021/11/21 12:54:34;;;;;;;1.92;1.62;;;;;;;;;;4176660;34;20174;-72
2021/11/21 12:57:00;;;;;;;1.80;1.70;;;;;;;;;;4141560;34;20237;-72
2021/11/21 12:59:59;;;;;;;1.87;1.60;;;;;;;;;;4152440;34;20098;-74
2021/11/21 13:02:26;;;;;;;1.80;1.60;;;;;;;;;;4160475;34;20547;-75
2021/11/21 13:04:53;;;;;;;2.50;1.45;;;;;;;;;;4152407;34;20110;-74
2021/11/21 13:07:25;;;;;;;1.85;1.73;;;;;;;;;;4163721;34;20100;-73
2021/11/21 13:10:21;;;;;;;2.37;1.70;;;;;;;;;;4176686;34;20106;-73
2021/11/21 13:12:48;;;;;;;1.90;1.70;;;;;;;;;;4170507;34;20145;-76
2021/11/21 13:15:15;;;;;;;1.65;1.55;;;;;;;;;;4152321;34;20110;-75
2021/11/21 13:17:45;;;;;;;2.58;2.17;;;;;;;;;;4176364;34;20140;-74
2021/11/21 13:20:13;;;;;;;1.87;1.77;;;;;;;;;;4163801;34;20213;-65
2021/11/21 13:22:49;;;;;;;1.70;1.60;;;;;;;;;;4176267;34;20209;-67
2021/11/21 13:25:52;;;;;;;1.60;1.50;;;;;;;;;;4176290;34;20454;-67
2021/11/21 13:28:31;;;;;;;1.92;1.73;;;;;;;;;;4176484;34;20129;-67
2021/11/21 13:31:11;;;;;;;2.22;1.77;;;;;;;;;;4176560;34;20118;-67
2021/11/21 13:33:43;;;;;;;2.25;2.05;;;;;;;;;;4176204;34;20525;-66
2021/11/21 13:36:17;;;;;;;2.67;2.15;;;;;;;;;;4176812;34;20136;-66
2021/11/21 13:38:43;;;;;;;3.53;2.08;;;;;;;;;;4176278;34;20134;-63
2021/11/21 13:41:11;;;;;;;2.10;1.90;;;;;;;;;;4176182;34;20195;-64
2021/11/21 13:43:45;;;;;;;2.25;1.77;;;;;;;;;;4176285;34;20550;-64
2021/11/21 13:46:12;;;;;;;2.35;2.15;;;;;;;;;;4176064;34;20119;-64
2021/11/21 13:48:40;;;;;;;2.30;2.10;;;;;;;;;;4178274;34;20529;-65
2021/11/21 13:51:14;;;;;;;2.28;1.90;;;;;;;;;;4175047;34;20130;-61
2021/11/21 13:53:45;;;;;;;2.17;1.75;;;;;;;;;;4164516;34;20107;-61
2021/11/21 13:56:12;;;;;;;3.25;2.20;;;;;;;;;;4164677;34;20111;-61
2021/11/21 13:58:38;;;;;;;2.60;1.75;;;;;;;;;;4151801;34;20124;-62
2021/11/21 14:01:17;;;;;;;1.73;1.60;;;;;;;;;;4164541;34;20186;-64
2021/11/21 14:03:54;;;;;;;2.22;2.03;;;;;;;;;;4164126;34;20145;-64
2021/11/21 14:06:21;;;;;;;1.90;1.62;;;;;;;;;;4152418;34;20141;-63
2021/11/21 14:08:50;;;;;;;2.17;1.83;;;;;;;;;;4164350;34;20154;-63
2021/11/21 14:11:16;;;;;;;2.20;1.90;;;;;;;;;;4151849;34;20512;-64
2021/11/21 14:13:44;;;;;;;3.05;1.55;;;;;;;;;;4164613;34;20137;-64
2021/11/21 14:16:14;;;;;;;1.90;1.80;;;;;;;;;;4164397;34;20099;-64
2021/11/21 14:18:45;;;;;;;1.50;1.40;;;;;;;;;;4164480;34;20095;-65
2021/11/21 14:21:13;;;;;;;1.40;1.30;;;;;;;;;;4151755;34;20198;-65
2021/11/21 14:23:39;;;;;;;1.67;1.58;;;;;;;;;;4151570;34;20695;-65
2021/11/21 14:26:09;;;;;;;1.75;1.65;;;;;;;;;;4164449;34;20123;-66
2021/11/21 14:28:36;;;;;;;1.70;1.60;;;;;;;;;;4151573;34;20107;-65
2021/11/21 14:31:09;;;;;;;2.78;1.50;;;;;;;;;;4164134;34;20287;-65
2021/11/21 14:33:36;;;;;;;2.17;1.83;;;;;;;;;;4164511;34;20106;-66
2021/11/21 14:36:13;;;;;;;1.60;1.50;;;;;;;;;;4164261;34;20137;-66
2021/11/21 14:38:39;;;;;;;1.60;1.50;;;;;;;;;;4163975;34;20107;-62
2021/11/21 14:41:10;;;;;;;1.60;1.50;;;;;;;;;;4163975;34;20195;-61
2021/11/21 14:43:44;;;;;;;2.28;1.75;;;;;;;;;;4164158;34;20484;-62
2021/11/21 14:46:10;;;;;;;1.67;1.57;;;;;;;;;;4163943;34;20139;-61
2021/11/21 14:48:38;;;;;;;2.10;1.80;;;;;;;;;;4163881;34;20109;-62
2021/11/21 14:51:04;;;;;;;1.80;1.70;;;;;;;;;;4163958;34;20199;-62
2021/11/21 14:53:31;;;;;;;1.90;1.80;;;;;;;;;;4177650;34;20110;-63
2021/11/21 14:56:02;;;;;;;2.25;1.58;;;;;;;;;;4177460;34;20134;-63
2021/11/21 14:58:34;;;;;;;2.70;1.92;;;;;;;;;;4176768;34;20205;-63
2021/11/21 15:01:02;;;;;;;2.10;1.90;;;;;;;;;;4176100;34;20107;-62
2021/11/21 15:03:28;;;;;;;1.90;1.70;;;;;;;;;;4176348;34;20133;-63
2021/11/21 15:05:54;;;;;;;1.73;1.62;;;;;;;;;;4176367;34;20829;-63